sensor_id;sensor_type;location;lat;lon;timestamp;P1;durP1;ratioP1;P2;durP2;ratioP2
48945;SDS011;34999;50.940;3.998;2023-02-03T00:01:08;6.43;;;4.20;;
48945;SDS011;34999;50.940;3.998;2023-02-03T00:03:37;10.87;;;4.10;;
48945;SDS011;34999;50.940;3.998;2023-02-03T00:06:06;16.53;;;4.73;;
48945;SDS011;34999;50.940;3.998;2023-02-03T00:08:35;14.57;;;4.20;;
48945;SDS011;34999;50.940;3.998;2023-02-03T00:11:04;19.00;;;5.10;;
48945;SDS011;34999;50.940;3.998;2023-02-03T00:13:33;9.03;;;4.20;;
48945;SDS011;34999;50.940;3.998;2023-02-03T00:16:04;15.57;;;4.47;;
48945;SDS011;34999;50.940;3.998;2023-02-03T00:18:33;15.57;;;4.40;;
48945;SDS011;34999;50.940;3.998;2023-02-03T00:21:01;13.73;;;4.23;;
48945;SDS011;34999;50.940;3.998;2023-02-03T00:23:30;13.10;;;3.83;;
48945;SDS011;34999;50.940;3.998;2023-02-03T00:26:05;12.63;;;3.50;;
48945;SDS011;34999;50.940;3.998;2023-02-03T00:28:34;11.10;;;3.83;;
48945;SDS011;34999;50.940;3.998;2023-02-03T00:31:03;11.83;;;3.40;;
48945;SDS011;34999;50.940;3.998;2023-02-03T00:33:32;11.90;;;3.67;;
48945;SDS011;34999;50.940;3.998;2023-02-03T00:36:03;12.40;;;3.80;;
48945;SDS011;34999;50.940;3.998;2023-02-03T00:38:32;17.70;;;3.97;;
48945;SDS011;34999;50.940;3.998;2023-02-03T00:41:00;11.87;;;3.60;;
48945;SDS011;34999;50.940;3.998;2023-02-03T00:43:29;12.07;;;3.90;;
48945;SDS011;34999;50.940;3.998;2023-02-03T00:45:57;18.03;;;3.60;;
48945;SDS011;34999;50.940;3.998;2023-02-03T00:48:28;12.90;;;3.33;;
48945;SDS011;34999;50.940;3.998;2023-02-03T00:50:56;10.70;;;3.20;;
48945;SDS011;34999;50.940;3.998;2023-02-03T00:53:24;9.53;;;3.03;;
48945;SDS011;34999;50.940;3.998;2023-02-03T00:55:53;11.03;;;3.30;;
48945;SDS011;34999;50.940;3.998;2023-02-03T00:58:21;10.83;;;3.40;;
48945;SDS011;34999;50.940;3.998;2023-02-03T01:00:49;9.77;;;2.93;;
48945;SDS011;34999;50.940;3.998;2023-02-03T01:03:18;8.77;;;3.33;;
48945;SDS011;34999;50.940;3.998;2023-02-03T01:05:47;8.90;;;3.27;;
48945;SDS011;34999;50.940;3.998;2023-02-03T01:08:16;9.13;;;3.30;;
48945;SDS011;34999;50.940;3.998;2023-02-03T01:10:44;11.87;;;2.80;;
48945;SDS011;34999;50.940;3.998;2023-02-03T01:13:13;13.03;;;3.17;;
48945;SDS011;34999;50.940;3.998;2023-02-03T01:15:44;9.93;;;2.67;;
48945;SDS011;34999;50.940;3.998;2023-02-03T01:18:13;9.27;;;3.00;;
48945;SDS011;34999;50.940;3.998;2023-02-03T01:20:42;10.83;;;3.47;;
48945;SDS011;34999;50.940;3.998;2023-02-03T01:23:11;8.03;;;2.67;;
48945;SDS011;34999;50.940;3.998;2023-02-03T01:25:40;12.10;;;3.10;;
48945;SDS011;34999;50.940;3.998;2023-02-03T01:28:08;12.00;;;3.10;;
48945;SDS011;34999;50.940;3.998;2023-02-03T01:30:37;10.80;;;3.00;;
48945;SDS011;34999;50.940;3.998;2023-02-03T01:33:05;10.60;;;2.67;;
48945;SDS011;34999;50.940;3.998;2023-02-03T01:35:34;15.40;;;2.93;;
48945;SDS011;34999;50.940;3.998;2023-02-03T01:38:02;8.87;;;3.20;;
48945;SDS011;34999;50.940;3.998;2023-02-03T01:40:32;10.97;;;3.07;;
48945;SDS011;34999;50.940;3.998;2023-02-03T01:43:00;13.50;;;3.13;;
48945;SDS011;34999;50.940;3.998;2023-02-03T01:45:29;10.07;;;2.97;;
48945;SDS011;34999;50.940;3.998;2023-02-03T01:47:57;9.90;;;3.20;;
48945;SDS011;34999;50.940;3.998;2023-02-03T01:50:27;8.07;;;2.60;;
48945;SDS011;34999;50.940;3.998;2023-02-03T01:52:59;10.87;;;2.97;;
48945;SDS011;34999;50.940;3.998;2023-02-03T01:55:33;9.40;;;2.90;;
48945;SDS011;34999;50.940;3.998;2023-02-03T01:58:05;11.80;;;2.90;;
48945;SDS011;34999;50.940;3.998;2023-02-03T02:00:38;14.77;;;3.20;;
48945;SDS011;34999;50.940;3.998;2023-02-03T02:03:06;9.93;;;2.77;;
48945;SDS011;34999;50.940;3.998;2023-02-03T02:05:37;8.93;;;2.80;;
48945;SDS011;34999;50.940;3.998;2023-02-03T02:08:09;7.17;;;2.67;;
48945;SDS011;34999;50.940;3.998;2023-02-03T02:10:41;10.60;;;2.70;;
48945;SDS011;34999;50.940;3.998;2023-02-03T02:13:10;8.10;;;2.77;;
48945;SDS011;34999;50.940;3.998;2023-02-03T02:15:42;8.57;;;2.50;;
48945;SDS011;34999;50.940;3.998;2023-02-03T02:18:19;8.27;;;2.87;;
48945;SDS011;34999;50.940;3.998;2023-02-03T02:21:08;6.13;;;2.30;;
48945;SDS011;34999;50.940;3.998;2023-02-03T02:23:58;9.37;;;2.60;;
48945;SDS011;34999;50.940;3.998;2023-02-03T02:26:57;13.37;;;2.80;;
48945;SDS011;34999;50.940;3.998;2023-02-03T02:29:48;7.10;;;2.47;;
48945;SDS011;34999;50.940;3.998;2023-02-03T02:32:41;8.43;;;2.60;;
48945;SDS011;34999;50.940;3.998;2023-02-03T02:35:17;10.60;;;2.50;;
48945;SDS011;34999;50.940;3.998;2023-02-03T02:37:57;6.30;;;2.47;;
48945;SDS011;34999;50.940;3.998;2023-02-03T02:40:31;8.13;;;2.13;;
48945;SDS011;34999;50.940;3.998;2023-02-03T02:43:03;9.57;;;2.40;;
48945;SDS011;34999;50.940;3.998;2023-02-03T02:45:40;10.20;;;2.37;;
48945;SDS011;34999;50.940;3.998;2023-02-03T02:48:18;14.93;;;3.10;;
48945;SDS011;34999;50.940;3.998;2023-02-03T02:50:50;9.00;;;2.50;;
48945;SDS011;34999;50.940;3.998;2023-02-03T02:53:23;4.73;;;2.37;;
48945;SDS011;34999;50.940;3.998;2023-02-03T02:55:53;4.30;;;2.17;;
48945;SDS011;34999;50.940;3.998;2023-02-03T02:58:23;6.73;;;2.63;;
48945;SDS011;34999;50.940;3.998;2023-02-03T03:00:53;7.47;;;2.40;;
48945;SDS011;34999;50.940;3.998;2023-02-03T03:03:24;7.37;;;2.70;;
48945;SDS011;34999;50.940;3.998;2023-02-03T03:05:53;7.83;;;2.20;;
48945;SDS011;34999;50.940;3.998;2023-02-03T03:08:25;9.20;;;3.00;;
48945;SDS011;34999;50.940;3.998;2023-02-03T03:10:57;9.53;;;2.50;;
48945;SDS011;34999;50.940;3.998;2023-02-03T03:13:30;11.43;;;3.00;;
48945;SDS011;34999;50.940;3.998;2023-02-03T03:16:01;15.80;;;2.57;;
48945;SDS011;34999;50.940;3.998;2023-02-03T03:18:35;9.90;;;2.27;;
48945;SDS011;34999;50.940;3.998;2023-02-03T03:21:09;7.20;;;2.60;;
48945;SDS011;34999;50.940;3.998;2023-02-03T03:23:43;10.00;;;2.37;;
48945;SDS011;34999;50.940;3.998;2023-02-03T03:26:15;11.73;;;2.67;;
48945;SDS011;34999;50.940;3.998;2023-02-03T03:28:50;5.60;;;2.30;;
48945;SDS011;34999;50.940;3.998;2023-02-03T03:31:21;5.80;;;2.10;;
48945;SDS011;34999;50.940;3.998;2023-02-03T03:33:51;11.43;;;2.50;;
48945;SDS011;34999;50.940;3.998;2023-02-03T03:36:21;9.07;;;2.50;;
48945;SDS011;34999;50.940;3.998;2023-02-03T03:38:54;6.00;;;2.20;;
48945;SDS011;34999;50.940;3.998;2023-02-03T03:41:32;4.77;;;2.20;;
48945;SDS011;34999;50.940;3.998;2023-02-03T03:44:08;10.20;;;2.23;;
48945;SDS011;34999;50.940;3.998;2023-02-03T03:46:42;3.90;;;2.37;;
48945;SDS011;34999;50.940;3.998;2023-02-03T03:49:17;4.77;;;2.07;;
48945;SDS011;34999;50.940;3.998;2023-02-03T03:51:48;8.37;;;2.40;;
48945;SDS011;34999;50.940;3.998;2023-02-03T03:54:20;5.40;;;2.07;;
48945;SDS011;34999;50.940;3.998;2023-02-03T03:56:53;6.17;;;2.07;;
48945;SDS011;34999;50.940;3.998;2023-02-03T03:59:26;4.70;;;2.10;;
48945;SDS011;34999;50.940;3.998;2023-02-03T04:01:58;5.17;;;2.10;;
48945;SDS011;34999;50.940;3.998;2023-02-03T04:04:32;4.50;;;1.97;;
48945;SDS011;34999;50.940;3.998;2023-02-03T04:07:02;7.00;;;2.00;;
48945;SDS011;34999;50.940;3.998;2023-02-03T04:09:31;7.33;;;2.10;;
48945;SDS011;34999;50.940;3.998;2023-02-03T04:12:02;7.13;;;2.30;;
48945;SDS011;34999;50.940;3.998;2023-02-03T04:14:32;4.33;;;1.87;;
48945;SDS011;34999;50.940;3.998;2023-02-03T04:17:04;5.33;;;2.00;;
48945;SDS011;34999;50.940;3.998;2023-02-03T04:19:34;10.10;;;2.27;;
48945;SDS011;34999;50.940;3.998;2023-02-03T04:22:02;6.93;;;1.87;;
48945;SDS011;34999;50.940;3.998;2023-02-03T04:24:31;7.00;;;2.43;;
48945;SDS011;34999;50.940;3.998;2023-02-03T04:26:59;7.20;;;2.20;;
48945;SDS011;34999;50.940;3.998;2023-02-03T04:29:30;6.70;;;1.97;;
48945;SDS011;34999;50.940;3.998;2023-02-03T04:31:59;5.23;;;1.80;;
48945;SDS011;34999;50.940;3.998;2023-02-03T04:34:28;3.73;;;2.00;;
48945;SDS011;34999;50.940;3.998;2023-02-03T04:36:57;2.63;;;2.00;;
48945;SDS011;34999;50.940;3.998;2023-02-03T04:39:25;2.93;;;2.00;;
48945;SDS011;34999;50.940;3.998;2023-02-03T04:41:54;4.27;;;2.00;;
48945;SDS011;34999;50.940;3.998;2023-02-03T04:44:22;4.20;;;1.93;;
48945;SDS011;34999;50.940;3.998;2023-02-03T04:46:50;2.63;;;1.80;;
48945;SDS011;34999;50.940;3.998;2023-02-03T04:49:19;5.10;;;1.70;;
48945;SDS011;34999;50.940;3.998;2023-02-03T04:51:47;5.27;;;2.10;;
48945;SDS011;34999;50.940;3.998;2023-02-03T04:54:17;7.33;;;2.10;;
48945;SDS011;34999;50.940;3.998;2023-02-03T04:56:45;7.73;;;2.83;;
48945;SDS011;34999;50.940;3.998;2023-02-03T04:59:14;4.07;;;1.87;;
48945;SDS011;34999;50.940;3.998;2023-02-03T05:01:43;5.00;;;2.10;;
48945;SDS011;34999;50.940;3.998;2023-02-03T05:04:12;6.00;;;2.33;;
48945;SDS011;34999;50.940;3.998;2023-02-03T05:06:40;4.67;;;1.90;;
48945;SDS011;34999;50.940;3.998;2023-02-03T05:09:08;5.77;;;2.10;;
48945;SDS011;34999;50.940;3.998;2023-02-03T05:11:39;8.43;;;2.20;;
48945;SDS011;34999;50.940;3.998;2023-02-03T05:14:07;4.97;;;1.93;;
48945;SDS011;34999;50.940;3.998;2023-02-03T05:16:36;6.13;;;2.00;;
48945;SDS011;34999;50.940;3.998;2023-02-03T05:19:04;2.27;;;1.90;;
48945;SDS011;34999;50.940;3.998;2023-02-03T05:21:32;5.53;;;2.10;;
48945;SDS011;34999;50.940;3.998;2023-02-03T05:24:01;8.73;;;2.03;;
48945;SDS011;34999;50.940;3.998;2023-02-03T05:26:32;5.37;;;2.07;;
48945;SDS011;34999;50.940;3.998;2023-02-03T05:29:02;5.40;;;1.87;;
48945;SDS011;34999;50.940;3.998;2023-02-03T05:31:31;5.23;;;2.00;;
48945;SDS011;34999;50.940;3.998;2023-02-03T05:34:00;8.37;;;2.00;;
48945;SDS011;34999;50.940;3.998;2023-02-03T05:36:28;2.20;;;1.90;;
48945;SDS011;34999;50.940;3.998;2023-02-03T05:38:57;5.13;;;2.23;;
48945;SDS011;34999;50.940;3.998;2023-02-03T05:41:25;7.33;;;2.00;;
48945;SDS011;34999;50.940;3.998;2023-02-03T05:44:12;5.70;;;2.03;;
48945;SDS011;34999;50.940;3.998;2023-02-03T05:46:41;4.63;;;1.93;;
48945;SDS011;34999;50.940;3.998;2023-02-03T05:49:09;6.80;;;2.23;;
48945;SDS011;34999;50.940;3.998;2023-02-03T05:51:37;8.07;;;2.17;;
48945;SDS011;34999;50.940;3.998;2023-02-03T05:54:06;3.90;;;2.00;;
48945;SDS011;34999;50.940;3.998;2023-02-03T05:56:35;6.73;;;2.30;;
48945;SDS011;34999;50.940;3.998;2023-02-03T05:59:03;5.27;;;3.30;;
48945;SDS011;34999;50.940;3.998;2023-02-03T06:01:34;3.83;;;3.23;;
48945;SDS011;34999;50.940;3.998;2023-02-03T06:04:02;8.70;;;3.07;;
48945;SDS011;34999;50.940;3.998;2023-02-03T06:06:31;3.97;;;2.20;;
48945;SDS011;34999;50.940;3.998;2023-02-03T06:09:00;3.63;;;2.30;;
48945;SDS011;34999;50.940;3.998;2023-02-03T06:11:30;5.33;;;2.40;;
48945;SDS011;34999;50.940;3.998;2023-02-03T06:13:59;4.13;;;1.90;;
48945;SDS011;34999;50.940;3.998;2023-02-03T06:16:28;3.67;;;2.30;;
48945;SDS011;34999;50.940;3.998;2023-02-03T06:18:57;2.90;;;1.60;;
48945;SDS011;34999;50.940;3.998;2023-02-03T06:21:27;3.43;;;2.00;;
48945;SDS011;34999;50.940;3.998;2023-02-03T06:23:56;4.20;;;2.23;;
48945;SDS011;34999;50.940;3.998;2023-02-03T06:26:24;3.63;;;2.10;;
48945;SDS011;34999;50.940;3.998;2023-02-03T06:28:53;1.90;;;1.80;;
48945;SDS011;34999;50.940;3.998;2023-02-03T06:31:21;6.50;;;1.90;;
48945;SDS011;34999;50.940;3.998;2023-02-03T06:33:49;6.67;;;2.17;;
48945;SDS011;34999;50.940;3.998;2023-02-03T06:36:19;6.43;;;2.10;;
48945;SDS011;34999;50.940;3.998;2023-02-03T06:38:47;5.03;;;2.20;;
48945;SDS011;34999;50.940;3.998;2023-02-03T06:41:16;7.73;;;2.40;;
48945;SDS011;34999;50.940;3.998;2023-02-03T06:43:44;3.77;;;1.90;;
48945;SDS011;34999;50.940;3.998;2023-02-03T06:46:12;6.70;;;2.13;;
48945;SDS011;34999;50.940;3.998;2023-02-03T06:48:40;4.63;;;2.13;;
48945;SDS011;34999;50.940;3.998;2023-02-03T06:51:09;5.77;;;2.00;;
48945;SDS011;34999;50.940;3.998;2023-02-03T06:53:39;5.00;;;2.07;;
48945;SDS011;34999;50.940;3.998;2023-02-03T06:56:07;4.57;;;2.13;;
48945;SDS011;34999;50.940;3.998;2023-02-03T06:58:35;4.43;;;2.00;;
48945;SDS011;34999;50.940;3.998;2023-02-03T07:01:03;7.27;;;2.17;;
48945;SDS011;34999;50.940;3.998;2023-02-03T07:03:32;6.23;;;2.00;;
48945;SDS011;34999;50.940;3.998;2023-02-03T07:06:00;9.80;;;2.50;;
48945;SDS011;34999;50.940;3.998;2023-02-03T07:08:28;3.17;;;2.20;;
48945;SDS011;34999;50.940;3.998;2023-02-03T07:10:58;6.07;;;1.83;;
48945;SDS011;34999;50.940;3.998;2023-02-03T07:13:26;6.90;;;2.37;;
48945;SDS011;34999;50.940;3.998;2023-02-03T07:15:54;6.20;;;2.23;;
48945;SDS011;34999;50.940;3.998;2023-02-03T07:18:23;5.20;;;2.30;;
48945;SDS011;34999;50.940;3.998;2023-02-03T07:21:12;4.23;;;2.00;;
48945;SDS011;34999;50.940;3.998;2023-02-03T07:23:41;11.57;;;2.70;;
48945;SDS011;34999;50.940;3.998;2023-02-03T07:26:11;3.43;;;2.20;;
48945;SDS011;34999;50.940;3.998;2023-02-03T07:28:40;5.80;;;2.80;;
48945;SDS011;34999;50.940;3.998;2023-02-03T07:31:08;5.00;;;2.00;;
48945;SDS011;34999;50.940;3.998;2023-02-03T07:33:37;6.23;;;2.43;;
48945;SDS011;34999;50.940;3.998;2023-02-03T07:36:06;4.33;;;2.50;;
48945;SDS011;34999;50.940;3.998;2023-02-03T07:38:35;9.20;;;2.33;;
48945;SDS011;34999;50.940;3.998;2023-02-03T07:41:04;6.37;;;2.50;;
48945;SDS011;34999;50.940;3.998;2023-02-03T07:43:34;6.63;;;2.57;;
48945;SDS011;34999;50.940;3.998;2023-02-03T07:46:03;8.13;;;2.43;;
48945;SDS011;34999;50.940;3.998;2023-02-03T07:48:31;4.93;;;2.00;;
48945;SDS011;34999;50.940;3.998;2023-02-03T07:51:00;6.20;;;2.60;;
48945;SDS011;34999;50.940;3.998;2023-02-03T07:53:28;4.70;;;2.30;;
48945;SDS011;34999;50.940;3.998;2023-02-03T07:55:58;4.43;;;1.83;;
48945;SDS011;34999;50.940;3.998;2023-02-03T07:58:27;5.37;;;2.60;;
48945;SDS011;34999;50.940;3.998;2023-02-03T08:00:57;4.97;;;2.20;;
48945;SDS011;34999;50.940;3.998;2023-02-03T08:03:26;5.97;;;2.13;;
48945;SDS011;34999;50.940;3.998;2023-02-03T08:05:54;6.03;;;2.20;;
48945;SDS011;34999;50.940;3.998;2023-02-03T08:08:23;10.80;;;2.80;;
48945;SDS011;34999;50.940;3.998;2023-02-03T08:10:53;4.73;;;2.47;;
48945;SDS011;34999;50.940;3.998;2023-02-03T08:13:21;6.83;;;2.40;;
48945;SDS011;34999;50.940;3.998;2023-02-03T08:15:50;3.07;;;2.10;;
48945;SDS011;34999;50.940;3.998;2023-02-03T08:18:20;7.20;;;2.73;;
48945;SDS011;34999;50.940;3.998;2023-02-03T08:20:49;6.33;;;2.00;;
48945;SDS011;34999;50.940;3.998;2023-02-03T08:23:17;3.47;;;2.10;;
48945;SDS011;34999;50.940;3.998;2023-02-03T08:25:48;3.33;;;1.87;;
48945;SDS011;34999;50.940;3.998;2023-02-03T08:28:17;4.33;;;2.10;;
48945;SDS011;34999;50.940;3.998;2023-02-03T08:30:46;5.37;;;2.20;;
48945;SDS011;34999;50.940;3.998;2023-02-03T08:33:14;6.50;;;1.90;;
48945;SDS011;34999;50.940;3.998;2023-02-03T08:35:45;5.33;;;2.10;;
48945;SDS011;34999;50.940;3.998;2023-02-03T08:38:14;7.13;;;1.90;;
48945;SDS011;34999;50.940;3.998;2023-02-03T08:40:43;2.30;;;1.83;;
48945;SDS011;34999;50.940;3.998;2023-02-03T08:43:11;3.13;;;2.00;;
48945;SDS011;34999;50.940;3.998;2023-02-03T08:45:40;4.73;;;1.87;;
48945;SDS011;34999;50.940;3.998;2023-02-03T08:48:08;6.23;;;2.03;;
48945;SDS011;34999;50.940;3.998;2023-02-03T08:50:36;4.57;;;2.57;;
48945;SDS011;34999;50.940;3.998;2023-02-03T08:53:09;4.63;;;2.10;;
48945;SDS011;34999;50.940;3.998;2023-02-03T08:55:37;4.63;;;2.10;;
48945;SDS011;34999;50.940;3.998;2023-02-03T08:58:06;3.70;;;2.10;;
48945;SDS011;34999;50.940;3.998;2023-02-03T09:00:34;6.53;;;1.97;;
48945;SDS011;34999;50.940;3.998;2023-02-03T09:03:03;2.33;;;2.10;;
48945;SDS011;34999;50.940;3.998;2023-02-03T09:05:31;8.20;;;2.20;;
48945;SDS011;34999;50.940;3.998;2023-02-03T09:08:01;4.57;;;2.10;;
48945;SDS011;34999;50.940;3.998;2023-02-03T09:10:31;3.63;;;2.10;;
48945;SDS011;34999;50.940;3.998;2023-02-03T09:12:59;6.23;;;2.10;;
48945;SDS011;34999;50.940;3.998;2023-02-03T09:15:27;3.63;;;2.17;;
48945;SDS011;34999;50.940;3.998;2023-02-03T09:17:56;5.87;;;2.10;;
48945;SDS011;34999;50.940;3.998;2023-02-03T09:20:24;5.33;;;2.43;;
48945;SDS011;34999;50.940;3.998;2023-02-03T09:22:53;4.47;;;2.83;;
48945;SDS011;34999;50.940;3.998;2023-02-03T09:25:24;4.30;;;2.50;;
48945;SDS011;34999;50.940;3.998;2023-02-03T09:27:54;8.10;;;3.50;;
48945;SDS011;34999;50.940;3.998;2023-02-03T09:30:23;5.40;;;2.80;;
48945;SDS011;34999;50.940;3.998;2023-02-03T09:32:52;3.00;;;2.60;;
48945;SDS011;34999;50.940;3.998;2023-02-03T09:35:21;4.70;;;2.67;;
48945;SDS011;34999;50.940;3.998;2023-02-03T09:37:52;4.93;;;2.97;;
48945;SDS011;34999;50.940;3.998;2023-02-03T09:40:21;3.17;;;2.97;;
48945;SDS011;34999;50.940;3.998;2023-02-03T09:43:04;5.90;;;2.83;;
48945;SDS011;34999;50.940;3.998;2023-02-03T09:45:59;7.40;;;3.80;;
48945;SDS011;34999;50.940;3.998;2023-02-03T09:48:31;8.57;;;3.57;;
48945;SDS011;34999;50.940;3.998;2023-02-03T09:51:04;3.67;;;2.73;;
48945;SDS011;34999;50.940;3.998;2023-02-03T09:53:44;3.70;;;2.80;;
48945;SDS011;34999;50.940;3.998;2023-02-03T09:56:19;12.87;;;3.93;;
48945;SDS011;34999;50.940;3.998;2023-02-03T09:58:55;8.70;;;3.90;;
48945;SDS011;34999;50.940;3.998;2023-02-03T10:01:23;7.73;;;3.47;;
48945;SDS011;34999;50.940;3.998;2023-02-03T10:03:57;4.97;;;2.90;;
48945;SDS011;34999;50.940;3.998;2023-02-03T10:06:32;7.80;;;2.80;;
48945;SDS011;34999;50.940;3.998;2023-02-03T10:09:11;3.70;;;2.53;;
48945;SDS011;34999;50.940;3.998;2023-02-03T10:11:52;5.63;;;2.67;;
48945;SDS011;34999;50.940;3.998;2023-02-03T10:14:42;10.20;;;2.83;;
48945;SDS011;34999;50.940;3.998;2023-02-03T10:17:21;4.90;;;3.00;;
48945;SDS011;34999;50.940;3.998;2023-02-03T10:19:58;4.77;;;2.57;;
48945;SDS011;34999;50.940;3.998;2023-02-03T10:22:33;4.10;;;2.47;;
48945;SDS011;34999;50.940;3.998;2023-02-03T10:25:10;6.20;;;2.43;;
48945;SDS011;34999;50.940;3.998;2023-02-03T10:27:46;4.07;;;2.73;;
48945;SDS011;34999;50.940;3.998;2023-02-03T10:30:18;10.23;;;4.43;;
48945;SDS011;34999;50.940;3.998;2023-02-03T10:32:48;8.07;;;2.97;;
48945;SDS011;34999;50.940;3.998;2023-02-03T10:35:21;5.20;;;3.07;;
48945;SDS011;34999;50.940;3.998;2023-02-03T10:37:59;6.00;;;3.03;;
48945;SDS011;34999;50.940;3.998;2023-02-03T10:40:28;4.70;;;2.63;;
48945;SDS011;34999;50.940;3.998;2023-02-03T10:42:56;4.50;;;2.60;;
48945;SDS011;34999;50.940;3.998;2023-02-03T10:45:44;5.87;;;2.90;;
48945;SDS011;34999;50.940;3.998;2023-02-03T10:48:14;4.60;;;2.87;;
48945;SDS011;34999;50.940;3.998;2023-02-03T10:50:46;3.80;;;2.70;;
48945;SDS011;34999;50.940;3.998;2023-02-03T10:53:21;12.33;;;2.90;;
48945;SDS011;34999;50.940;3.998;2023-02-03T10:55:58;6.13;;;3.00;;
48945;SDS011;34999;50.940;3.998;2023-02-03T10:58:30;5.10;;;2.70;;
48945;SDS011;34999;50.940;3.998;2023-02-03T11:01:09;6.80;;;2.87;;
48945;SDS011;34999;50.940;3.998;2023-02-03T11:03:40;4.47;;;3.03;;
48945;SDS011;34999;50.940;3.998;2023-02-03T11:06:10;3.33;;;2.77;;
48945;SDS011;34999;50.940;3.998;2023-02-03T11:08:42;5.67;;;2.40;;
48945;SDS011;34999;50.940;3.998;2023-02-03T11:11:13;7.80;;;2.60;;
48945;SDS011;34999;50.940;3.998;2023-02-03T11:13:51;6.47;;;3.13;;
48945;SDS011;34999;50.940;3.998;2023-02-03T11:16:21;4.17;;;2.70;;
48945;SDS011;34999;50.940;3.998;2023-02-03T11:18:51;4.23;;;3.20;;
48945;SDS011;34999;50.940;3.998;2023-02-03T11:21:22;6.97;;;2.90;;
48945;SDS011;34999;50.940;3.998;2023-02-03T11:23:54;6.13;;;2.73;;
48945;SDS011;34999;50.940;3.998;2023-02-03T11:26:28;3.03;;;2.43;;
48945;SDS011;34999;50.940;3.998;2023-02-03T11:29:00;5.93;;;2.87;;
48945;SDS011;34999;50.940;3.998;2023-02-03T11:31:33;4.10;;;3.27;;
48945;SDS011;34999;50.940;3.998;2023-02-03T11:34:04;6.73;;;2.80;;
48945;SDS011;34999;50.940;3.998;2023-02-03T11:36:41;6.17;;;3.30;;
48945;SDS011;34999;50.940;3.998;2023-02-03T11:39:16;2.70;;;2.40;;
48945;SDS011;34999;50.940;3.998;2023-02-03T11:41:52;4.37;;;2.90;;
48945;SDS011;34999;50.940;3.998;2023-02-03T11:44:22;4.97;;;2.70;;
48945;SDS011;34999;50.940;3.998;2023-02-03T11:46:57;3.73;;;3.03;;
48945;SDS011;34999;50.940;3.998;2023-02-03T11:52:49;11.60;;;3.00;;
48945;SDS011;34999;50.940;3.998;2023-02-03T11:55:40;5.50;;;2.80;;
48945;SDS011;34999;50.940;3.998;2023-02-03T11:58:19;6.43;;;3.40;;
48945;SDS011;34999;50.940;3.998;2023-02-03T12:01:26;8.27;;;3.87;;
48945;SDS011;34999;50.940;3.998;2023-02-03T12:04:27;8.63;;;4.70;;
48945;SDS011;34999;50.940;3.998;2023-02-03T12:07:21;6.37;;;3.27;;
48945;SDS011;34999;50.940;3.998;2023-02-03T12:10:08;6.87;;;3.30;;
48945;SDS011;34999;50.940;3.998;2023-02-03T12:12:56;6.77;;;3.43;;
48945;SDS011;34999;50.940;3.998;2023-02-03T12:15:38;8.07;;;3.03;;
48945;SDS011;34999;50.940;3.998;2023-02-03T12:18:24;9.53;;;3.73;;
48945;SDS011;34999;50.940;3.998;2023-02-03T12:21:06;5.90;;;3.07;;
48945;SDS011;34999;50.940;3.998;2023-02-03T12:23:48;3.83;;;2.83;;
48945;SDS011;34999;50.940;3.998;2023-02-03T12:26:28;5.13;;;3.10;;
48945;SDS011;34999;50.940;3.998;2023-02-03T12:29:03;7.27;;;2.73;;
48945;SDS011;34999;50.940;3.998;2023-02-03T12:31:37;5.90;;;3.47;;
48945;SDS011;34999;50.940;3.998;2023-02-03T12:34:12;6.97;;;3.53;;
48945;SDS011;34999;50.940;3.998;2023-02-03T12:36:48;6.93;;;3.30;;
48945;SDS011;34999;50.940;3.998;2023-02-03T12:39:24;4.93;;;3.03;;
48945;SDS011;34999;50.940;3.998;2023-02-03T12:41:58;6.10;;;4.00;;
48945;SDS011;34999;50.940;3.998;2023-02-03T12:44:30;10.80;;;3.77;;
48945;SDS011;34999;50.940;3.998;2023-02-03T12:47:03;6.00;;;3.17;;
48945;SDS011;34999;50.940;3.998;2023-02-03T12:49:35;9.70;;;3.30;;
48945;SDS011;34999;50.940;3.998;2023-02-03T12:52:13;8.80;;;3.80;;
48945;SDS011;34999;50.940;3.998;2023-02-03T12:54:48;10.00;;;3.70;;
48945;SDS011;34999;50.940;3.998;2023-02-03T12:57:25;5.90;;;2.97;;
48945;SDS011;34999;50.940;3.998;2023-02-03T12:59:58;7.23;;;3.30;;
48945;SDS011;34999;50.940;3.998;2023-02-03T13:02:36;4.77;;;3.70;;
48945;SDS011;34999;50.940;3.998;2023-02-03T13:05:14;5.80;;;3.90;;
48945;SDS011;34999;50.940;3.998;2023-02-03T13:07:52;7.03;;;3.60;;
48945;SDS011;34999;50.940;3.998;2023-02-03T13:10:28;4.43;;;3.20;;
48945;SDS011;34999;50.940;3.998;2023-02-03T13:13:01;6.87;;;3.30;;
48945;SDS011;34999;50.940;3.998;2023-02-03T13:15:35;6.17;;;3.93;;
48945;SDS011;34999;50.940;3.998;2023-02-03T13:18:07;7.30;;;3.63;;
48945;SDS011;34999;50.940;3.998;2023-02-03T13:20:45;3.83;;;2.90;;
48945;SDS011;34999;50.940;3.998;2023-02-03T13:23:15;4.23;;;2.90;;
48945;SDS011;34999;50.940;3.998;2023-02-03T13:25:50;4.50;;;3.00;;
48945;SDS011;34999;50.940;3.998;2023-02-03T13:28:42;4.27;;;2.90;;
48945;SDS011;34999;50.940;3.998;2023-02-03T13:31:32;7.17;;;3.00;;
48945;SDS011;34999;50.940;3.998;2023-02-03T13:34:12;3.30;;;2.70;;
48945;SDS011;34999;50.940;3.998;2023-02-03T13:37:06;7.70;;;3.00;;
48945;SDS011;34999;50.940;3.998;2023-02-03T13:39:57;6.07;;;3.67;;
48945;SDS011;34999;50.940;3.998;2023-02-03T13:42:43;3.30;;;2.90;;
48945;SDS011;34999;50.940;3.998;2023-02-03T13:45:18;4.97;;;3.00;;
48945;SDS011;34999;50.940;3.998;2023-02-03T13:47:53;6.13;;;2.70;;
48945;SDS011;34999;50.940;3.998;2023-02-03T13:50:25;8.30;;;3.20;;
48945;SDS011;34999;50.940;3.998;2023-02-03T13:52:56;4.53;;;3.03;;
48945;SDS011;34999;50.940;3.998;2023-02-03T13:55:32;2.87;;;2.37;;
48945;SDS011;34999;50.940;3.998;2023-02-03T13:58:02;5.70;;;2.50;;
48945;SDS011;34999;50.940;3.998;2023-02-03T14:03:40;4.00;;;2.40;;
48945;SDS011;34999;50.940;3.998;2023-02-03T14:09:38;6.23;;;2.40;;
48945;SDS011;34999;50.940;3.998;2023-02-03T14:23:58;3.03;;;2.30;;
48945;SDS011;34999;50.940;3.998;2023-02-03T14:26:33;7.33;;;2.83;;
48945;SDS011;34999;50.940;3.998;2023-02-03T14:29:07;6.93;;;3.73;;
48945;SDS011;34999;50.940;3.998;2023-02-03T14:31:54;5.83;;;2.87;;
48945;SDS011;34999;50.940;3.998;2023-02-03T14:37:16;5.17;;;3.33;;
48945;SDS011;34999;50.940;3.998;2023-02-03T14:42:55;7.60;;;2.63;;
48945;SDS011;34999;50.940;3.998;2023-02-03T14:45:48;4.03;;;2.70;;
48945;SDS011;34999;50.940;3.998;2023-02-03T14:48:41;11.03;;;3.37;;
48945;SDS011;34999;50.940;3.998;2023-02-03T14:51:22;2.97;;;2.13;;
48945;SDS011;34999;50.940;3.998;2023-02-03T14:54:03;2.50;;;2.40;;
48945;SDS011;34999;50.940;3.998;2023-02-03T14:56:44;2.80;;;2.53;;
48945;SDS011;34999;50.940;3.998;2023-02-03T14:59:36;3.07;;;2.63;;
48945;SDS011;34999;50.940;3.998;2023-02-03T15:02:09;5.93;;;2.67;;
48945;SDS011;34999;50.940;3.998;2023-02-03T15:04:41;2.30;;;2.10;;
48945;SDS011;34999;50.940;3.998;2023-02-03T15:10:03;6.67;;;2.77;;
48945;SDS011;34999;50.940;3.998;2023-02-03T15:12:42;7.03;;;2.60;;
48945;SDS011;34999;50.940;3.998;2023-02-03T15:15:21;2.70;;;2.40;;
48945;SDS011;34999;50.940;3.998;2023-02-03T15:17:54;5.27;;;2.50;;
48945;SDS011;34999;50.940;3.998;2023-02-03T15:20:34;3.80;;;2.57;;
48945;SDS011;34999;50.940;3.998;2023-02-03T15:23:16;3.67;;;2.40;;
48945;SDS011;34999;50.940;3.998;2023-02-03T15:25:51;3.70;;;2.80;;
48945;SDS011;34999;50.940;3.998;2023-02-03T15:28:22;4.93;;;2.53;;
48945;SDS011;34999;50.940;3.998;2023-02-03T15:30:52;5.53;;;2.63;;
48945;SDS011;34999;50.940;3.998;2023-02-03T15:33:25;3.53;;;2.40;;
48945;SDS011;34999;50.940;3.998;2023-02-03T15:36:03;2.70;;;2.40;;
48945;SDS011;34999;50.940;3.998;2023-02-03T15:38:34;4.83;;;2.43;;
48945;SDS011;34999;50.940;3.998;2023-02-03T15:41:05;2.47;;;2.17;;
48945;SDS011;34999;50.940;3.998;2023-02-03T15:43:38;3.53;;;2.30;;
48945;SDS011;34999;50.940;3.998;2023-02-03T15:46:09;5.87;;;2.60;;
48945;SDS011;34999;50.940;3.998;2023-02-03T15:48:46;2.63;;;2.37;;